sensor_id;sensor_type;location;lat;lon;timestamp;temperature;humidity
35962;DHT22;22044;48.298;10.008;2023-06-10T00:01:37;16.20;99.90
35962;DHT22;22044;48.298;10.008;2023-06-10T00:04:23;16.10;99.90
35962;DHT22;22044;48.298;10.008;2023-06-10T00:07:09;15.90;99.90
35962;DHT22;22044;48.298;10.008;2023-06-10T00:09:55;15.80;99.90
35962;DHT22;22044;48.298;10.008;2023-06-10T00:12:41;15.70;99.90
35962;DHT22;22044;48.298;10.008;2023-06-10T00:15:29;15.80;99.90
35962;DHT22;22044;48.298;10.008;2023-06-10T00:18:15;15.70;99.90
35962;DHT22;22044;48.298;10.008;2023-06-10T00:21:01;15.70;99.90
35962;DHT22;22044;48.298;10.008;2023-06-10T00:23:48;15.70;99.90
35962;DHT22;22044;48.298;10.008;2023-06-10T00:26:34;15.70;99.90
35962;DHT22;22044;48.298;10.008;2023-06-10T00:29:20;15.70;99.90
35962;DHT22;22044;48.298;10.008;2023-06-10T00:32:08;15.80;99.90
35962;DHT22;22044;48.298;10.008;2023-06-10T00:34:53;15.80;99.90
35962;DHT22;22044;48.298;10.008;2023-06-10T00:37:39;15.80;99.90
35962;DHT22;22044;48.298;10.008;2023-06-10T00:40:25;15.80;99.90
35962;DHT22;22044;48.298;10.008;2023-06-10T00:43:10;15.80;99.90
35962;DHT22;22044;48.298;10.008;2023-06-10T00:45:56;15.80;99.90
35962;DHT22;22044;48.298;10.008;2023-06-10T00:48:44;15.80;99.90
35962;DHT22;22044;48.298;10.008;2023-06-10T00:51:30;15.90;99.90
35962;DHT22;22044;48.298;10.008;2023-06-10T00:54:16;15.90;99.90
35962;DHT22;22044;48.298;10.008;2023-06-10T00:57:01;16.00;99.90
35962;DHT22;22044;48.298;10.008;2023-06-10T00:59:48;16.00;99.90
35962;DHT22;22044;48.298;10.008;2023-06-10T01:02:34;15.90;99.90
35962;DHT22;22044;48.298;10.008;2023-06-10T01:05:22;15.90;99.90
35962;DHT22;22044;48.298;10.008;2023-06-10T01:08:14;15.90;99.90
35962;DHT22;22044;48.298;10.008;2023-06-10T01:11:04;15.80;99.90
35962;DHT22;22044;48.298;10.008;2023-06-10T01:13:55;15.80;99.90
35962;DHT22;22044;48.298;10.008;2023-06-10T01:16:44;15.80;99.90
35962;DHT22;22044;48.298;10.008;2023-06-10T01:19:29;15.80;99.90
35962;DHT22;22044;48.298;10.008;2023-06-10T01:22:16;15.90;99.90
35962;DHT22;22044;48.298;10.008;2023-06-10T01:25:02;15.90;99.90
35962;DHT22;22044;48.298;10.008;2023-06-10T01:27:50;15.80;99.90
35962;DHT22;22044;48.298;10.008;2023-06-10T01:30:39;15.90;99.90
35962;DHT22;22044;48.298;10.008;2023-06-10T01:33:30;15.90;99.90
35962;DHT22;22044;48.298;10.008;2023-06-10T01:36:17;15.90;99.90
35962;DHT22;22044;48.298;10.008;2023-06-10T01:39:05;15.90;99.90
35962;DHT22;22044;48.298;10.008;2023-06-10T01:41:54;15.80;99.90
35962;DHT22;22044;48.298;10.008;2023-06-10T01:44:40;15.80;99.90
35962;DHT22;22044;48.298;10.008;2023-06-10T01:47:26;15.70;99.90
35962;DHT22;22044;48.298;10.008;2023-06-10T01:50:12;15.70;99.90
35962;DHT22;22044;48.298;10.008;2023-06-10T01:52:59;15.70;99.90
35962;DHT22;22044;48.298;10.008;2023-06-10T01:55:47;15.70;99.90
35962;DHT22;22044;48.298;10.008;2023-06-10T01:58:32;15.70;99.90
35962;DHT22;22044;48.298;10.008;2023-06-10T02:01:18;15.70;99.90
35962;DHT22;22044;48.298;10.008;2023-06-10T02:04:04;15.70;99.90
35962;DHT22;22044;48.298;10.008;2023-06-10T02:06:50;15.70;99.90
35962;DHT22;22044;48.298;10.008;2023-06-10T02:09:37;15.70;99.90
35962;DHT22;22044;48.298;10.008;2023-06-10T02:12:24;15.70;99.90
35962;DHT22;22044;48.298;10.008;2023-06-10T02:15:10;15.70;99.90
35962;DHT22;22044;48.298;10.008;2023-06-10T02:17:56;15.60;99.90
35962;DHT22;22044;48.298;10.008;2023-06-10T02:20:42;15.50;99.90
35962;DHT22;22044;48.298;10.008;2023-06-10T02:23:27;15.50;99.90
35962;DHT22;22044;48.298;10.008;2023-06-10T02:26:13;15.60;99.90
35962;DHT22;22044;48.298;10.008;2023-06-10T02:29:00;15.50;99.90
35962;DHT22;22044;48.298;10.008;2023-06-10T02:31:46;15.50;99.90
35962;DHT22;22044;48.298;10.008;2023-06-10T02:34:32;15.40;99.90
35962;DHT22;22044;48.298;10.008;2023-06-10T02:37:19;15.40;99.90
35962;DHT22;22044;48.298;10.008;2023-06-10T02:40:07;15.40;99.90
35962;DHT22;22044;48.298;10.008;2023-06-10T02:42:55;15.40;99.90
35962;DHT22;22044;48.298;10.008;2023-06-10T02:45:44;15.30;99.90
35962;DHT22;22044;48.298;10.008;2023-06-10T02:48:30;15.20;99.90
35962;DHT22;22044;48.298;10.008;2023-06-10T02:51:16;15.20;99.90
35962;DHT22;22044;48.298;10.008;2023-06-10T02:54:05;15.10;99.90
35962;DHT22;22044;48.298;10.008;2023-06-10T02:56:51;15.10;99.90
35962;DHT22;22044;48.298;10.008;2023-06-10T02:59:42;15.10;99.90
35962;DHT22;22044;48.298;10.008;2023-06-10T03:02:29;15.00;99.90
35962;DHT22;22044;48.298;10.008;2023-06-10T03:05:16;15.10;99.90
35962;DHT22;22044;48.298;10.008;2023-06-10T03:08:06;15.10;99.90
35962;DHT22;22044;48.298;10.008;2023-06-10T03:10:54;15.10;99.90
35962;DHT22;22044;48.298;10.008;2023-06-10T03:13:39;15.00;99.90
35962;DHT22;22044;48.298;10.008;2023-06-10T03:16:27;15.00;99.90
35962;DHT22;22044;48.298;10.008;2023-06-10T03:19:17;15.00;99.90
35962;DHT22;22044;48.298;10.008;2023-06-10T03:22:09;14.90;99.90
35962;DHT22;22044;48.298;10.008;2023-06-10T03:24:58;14.90;99.90
35962;DHT22;22044;48.298;10.008;2023-06-10T03:27:46;14.80;99.90
35962;DHT22;22044;48.298;10.008;2023-06-10T03:30:32;14.80;99.90
35962;DHT22;22044;48.298;10.008;2023-06-10T03:33:17;14.80;99.90
35962;DHT22;22044;48.298;10.008;2023-06-10T03:36:05;14.80;99.90
35962;DHT22;22044;48.298;10.008;2023-06-10T03:38:52;14.70;99.90
35962;DHT22;22044;48.298;10.008;2023-06-10T03:41:41;14.60;99.90
35962;DHT22;22044;48.298;10.008;2023-06-10T03:44:28;14.60;99.90
35962;DHT22;22044;48.298;10.008;2023-06-10T03:47:14;14.60;99.90
35962;DHT22;22044;48.298;10.008;2023-06-10T03:50:01;14.50;99.90
35962;DHT22;22044;48.298;10.008;2023-06-10T03:52:49;14.50;99.90
35962;DHT22;22044;48.298;10.008;2023-06-10T03:55:38;14.50;99.90
35962;DHT22;22044;48.298;10.008;2023-06-10T03:58:24;14.60;99.90
35962;DHT22;22044;48.298;10.008;2023-06-10T04:01:10;14.50;99.90
35962;DHT22;22044;48.298;10.008;2023-06-10T04:03:57;14.50;99.90
35962;DHT22;22044;48.298;10.008;2023-06-10T04:06:43;14.50;99.90
35962;DHT22;22044;48.298;10.008;2023-06-10T04:09:32;14.50;99.90
35962;DHT22;22044;48.298;10.008;2023-06-10T04:12:17;14.50;99.90
35962;DHT22;22044;48.298;10.008;2023-06-10T04:15:04;14.50;99.90
35962;DHT22;22044;48.298;10.008;2023-06-10T04:17:50;14.60;99.90
35962;DHT22;22044;48.298;10.008;2023-06-10T04:20:38;14.60;99.90
35962;DHT22;22044;48.298;10.008;2023-06-10T04:23:25;14.70;99.90
35962;DHT22;22044;48.298;10.008;2023-06-10T04:26:12;14.80;99.90
35962;DHT22;22044;48.298;10.008;2023-06-10T04:28:57;14.80;99.90
35962;DHT22;22044;48.298;10.008;2023-06-10T04:31:43;14.90;99.90
35962;DHT22;22044;48.298;10.008;2023-06-10T04:34:30;15.00;99.90
35962;DHT22;22044;48.298;10.008;2023-06-10T04:37:16;15.20;99.90
35962;DHT22;22044;48.298;10.008;2023-06-10T04:40:02;15.30;99.90
35962;DHT22;22044;48.298;10.008;2023-06-10T04:42:50;15.30;99.90
35962;DHT22;22044;48.298;10.008;2023-06-10T04:45:36;15.40;99.90
35962;DHT22;22044;48.298;10.008;2023-06-10T04:48:22;15.40;99.90
35962;DHT22;22044;48.298;10.008;2023-06-10T04:51:09;15.50;99.90
35962;DHT22;22044;48.298;10.008;2023-06-10T04:53:55;15.60;99.90
35962;DHT22;22044;48.298;10.008;2023-06-10T04:56:40;15.70;99.90
35962;DHT22;22044;48.298;10.008;2023-06-10T04:59:27;15.80;99.90
35962;DHT22;22044;48.298;10.008;2023-06-10T05:02:14;15.80;99.90
35962;DHT22;22044;48.298;10.008;2023-06-10T05:04:59;15.80;99.90
35962;DHT22;22044;48.298;10.008;2023-06-10T05:07:45;15.90;99.90
35962;DHT22;22044;48.298;10.008;2023-06-10T05:10:31;16.00;99.90
35962;DHT22;22044;48.298;10.008;2023-06-10T05:13:18;16.00;99.90
35962;DHT22;22044;48.298;10.008;2023-06-10T05:16:05;16.10;99.90
35962;DHT22;22044;48.298;10.008;2023-06-10T05:18:51;16.10;99.90
35962;DHT22;22044;48.298;10.008;2023-06-10T05:21:37;16.10;99.90
35962;DHT22;22044;48.298;10.008;2023-06-10T05:24:22;16.20;99.90
35962;DHT22;22044;48.298;10.008;2023-06-10T05:27:08;16.40;99.90
35962;DHT22;22044;48.298;10.008;2023-06-10T05:29:53;16.50;99.90
35962;DHT22;22044;48.298;10.008;2023-06-10T05:32:40;16.60;99.90
35962;DHT22;22044;48.298;10.008;2023-06-10T05:35:26;16.60;99.90
35962;DHT22;22044;48.298;10.008;2023-06-10T05:38:12;16.60;99.90
35962;DHT22;22044;48.298;10.008;2023-06-10T05:40:57;16.80;99.90
35962;DHT22;22044;48.298;10.008;2023-06-10T05:43:43;16.90;99.90
35962;DHT22;22044;48.298;10.008;2023-06-10T05:46:30;16.90;99.90
35962;DHT22;22044;48.298;10.008;2023-06-10T05:49:17;16.90;99.90
35962;DHT22;22044;48.298;10.008;2023-06-10T05:52:02;17.00;99.90
35962;DHT22;22044;48.298;10.008;2023-06-10T05:54:49;17.20;99.90
35962;DHT22;22044;48.298;10.008;2023-06-10T05:57:35;17.40;99.90
35962;DHT22;22044;48.298;10.008;2023-06-10T06:00:21;17.50;99.90
35962;DHT22;22044;48.298;10.008;2023-06-10T06:03:07;17.50;99.90
35962;DHT22;22044;48.298;10.008;2023-06-10T06:05:54;17.60;99.90
35962;DHT22;22044;48.298;10.008;2023-06-10T06:08:39;17.70;99.90
35962;DHT22;22044;48.298;10.008;2023-06-10T06:11:25;17.80;99.90
35962;DHT22;22044;48.298;10.008;2023-06-10T06:14:11;17.90;99.90
35962;DHT22;22044;48.298;10.008;2023-06-10T06:16:56;18.00;99.90
35962;DHT22;22044;48.298;10.008;2023-06-10T06:19:42;18.00;99.90
35962;DHT22;22044;48.298;10.008;2023-06-10T06:22:29;18.20;99.90
35962;DHT22;22044;48.298;10.008;2023-06-10T06:25:15;18.20;99.90
35962;DHT22;22044;48.298;10.008;2023-06-10T06:28:01;18.30;99.90
35962;DHT22;22044;48.298;10.008;2023-06-10T06:30:46;18.10;99.90
35962;DHT22;22044;48.298;10.008;2023-06-10T06:33:32;18.30;99.90
35962;DHT22;22044;48.298;10.008;2023-06-10T06:36:19;18.50;99.90
35962;DHT22;22044;48.298;10.008;2023-06-10T06:39:06;18.50;99.90
35962;DHT22;22044;48.298;10.008;2023-06-10T06:41:51;18.60;99.90
35962;DHT22;22044;48.298;10.008;2023-06-10T06:44:44;18.60;99.90
35962;DHT22;22044;48.298;10.008;2023-06-10T06:47:29;18.60;99.90
35962;DHT22;22044;48.298;10.008;2023-06-10T06:50:15;18.80;99.90
35962;DHT22;22044;48.298;10.008;2023-06-10T06:53:01;18.90;99.90
35962;DHT22;22044;48.298;10.008;2023-06-10T06:55:48;18.90;99.90
35962;DHT22;22044;48.298;10.008;2023-06-10T06:58:34;19.00;99.90
35962;DHT22;22044;48.298;10.008;2023-06-10T07:01:19;19.20;99.90
35962;DHT22;22044;48.298;10.008;2023-06-10T07:04:05;19.30;99.90
35962;DHT22;22044;48.298;10.008;2023-06-10T07:06:51;19.30;99.90
35962;DHT22;22044;48.298;10.008;2023-06-10T07:09:37;19.10;99.90
35962;DHT22;22044;48.298;10.008;2023-06-10T07:12:24;19.20;99.90
35962;DHT22;22044;48.298;10.008;2023-06-10T07:15:10;19.40;99.90
35962;DHT22;22044;48.298;10.008;2023-06-10T07:17:55;19.50;99.90
35962;DHT22;22044;48.298;10.008;2023-06-10T07:20:41;19.70;99.90
35962;DHT22;22044;48.298;10.008;2023-06-10T07:23:27;19.80;99.90
35962;DHT22;22044;48.298;10.008;2023-06-10T07:26:12;19.90;99.90
35962;DHT22;22044;48.298;10.008;2023-06-10T07:28:59;20.00;99.90
35962;DHT22;22044;48.298;10.008;2023-06-10T07:31:45;20.10;99.90
35962;DHT22;22044;48.298;10.008;2023-06-10T07:34:31;20.00;99.90
35962;DHT22;22044;48.298;10.008;2023-06-10T07:37:17;20.10;99.90
35962;DHT22;22044;48.298;10.008;2023-06-10T07:40:04;20.30;99.90
35962;DHT22;22044;48.298;10.008;2023-06-10T07:42:50;20.20;99.90
35962;DHT22;22044;48.298;10.008;2023-06-10T07:45:39;20.30;99.90
35962;DHT22;22044;48.298;10.008;2023-06-10T07:48:25;20.70;99.90
35962;DHT22;22044;48.298;10.008;2023-06-10T07:51:11;20.80;99.90
35962;DHT22;22044;48.298;10.008;2023-06-10T07:53:56;21.00;99.90
35962;DHT22;22044;48.298;10.008;2023-06-10T07:56:42;21.00;99.90
35962;DHT22;22044;48.298;10.008;2023-06-10T07:59:28;21.10;99.90
35962;DHT22;22044;48.298;10.008;2023-06-10T08:02:15;21.20;99.90
35962;DHT22;22044;48.298;10.008;2023-06-10T08:05:00;21.00;99.90
35962;DHT22;22044;48.298;10.008;2023-06-10T08:07:46;21.20;99.90
35962;DHT22;22044;48.298;10.008;2023-06-10T08:10:31;21.40;99.90
35962;DHT22;22044;48.298;10.008;2023-06-10T08:13:17;21.50;99.90
35962;DHT22;22044;48.298;10.008;2023-06-10T08:16:04;21.60;99.90
35962;DHT22;22044;48.298;10.008;2023-06-10T08:18:51;21.60;99.90
35962;DHT22;22044;48.298;10.008;2023-06-10T08:21:37;21.60;99.90
35962;DHT22;22044;48.298;10.008;2023-06-10T08:24:24;21.70;99.90
35962;DHT22;22044;48.298;10.008;2023-06-10T08:27:09;21.70;99.90
35962;DHT22;22044;48.298;10.008;2023-06-10T08:29:55;21.50;99.90
35962;DHT22;22044;48.298;10.008;2023-06-10T08:32:41;21.70;99.90
35962;DHT22;22044;48.298;10.008;2023-06-10T08:35:28;21.70;99.90
35962;DHT22;22044;48.298;10.008;2023-06-10T08:38:14;22.10;99.90
35962;DHT22;22044;48.298;10.008;2023-06-10T08:41:01;22.10;99.90
35962;DHT22;22044;48.298;10.008;2023-06-10T08:43:53;21.90;99.90
35962;DHT22;22044;48.298;10.008;2023-06-10T08:46:44;22.00;99.90
35962;DHT22;22044;48.298;10.008;2023-06-10T08:49:31;22.00;99.90
35962;DHT22;22044;48.298;10.008;2023-06-10T08:52:21;22.10;99.90
35962;DHT22;22044;48.298;10.008;2023-06-10T08:55:11;22.50;99.90
35962;DHT22;22044;48.298;10.008;2023-06-10T08:57:58;22.70;99.90
35962;DHT22;22044;48.298;10.008;2023-06-10T09:00:46;22.70;99.90
35962;DHT22;22044;48.298;10.008;2023-06-10T09:03:32;22.90;99.90
35962;DHT22;22044;48.298;10.008;2023-06-10T09:06:19;22.90;99.90
35962;DHT22;22044;48.298;10.008;2023-06-10T09:09:06;23.00;99.90
35962;DHT22;22044;48.298;10.008;2023-06-10T09:11:52;22.80;99.90
35962;DHT22;22044;48.298;10.008;2023-06-10T09:14:38;23.00;99.90
35962;DHT22;22044;48.298;10.008;2023-06-10T09:17:23;23.10;99.90
35962;DHT22;22044;48.298;10.008;2023-06-10T09:20:10;23.20;99.90
35962;DHT22;22044;48.298;10.008;2023-06-10T09:22:55;23.30;99.90
35962;DHT22;22044;48.298;10.008;2023-06-10T09:25:42;23.50;99.90
35962;DHT22;22044;48.298;10.008;2023-06-10T09:28:29;23.30;99.90
35962;DHT22;22044;48.298;10.008;2023-06-10T09:31:15;23.50;99.90
35962;DHT22;22044;48.298;10.008;2023-06-10T09:34:10;23.60;99.90
35962;DHT22;22044;48.298;10.008;2023-06-10T09:36:55;23.60;99.90
35962;DHT22;22044;48.298;10.008;2023-06-10T09:39:42;23.70;99.90
35962;DHT22;22044;48.298;10.008;2023-06-10T09:42:32;23.90;99.90
35962;DHT22;22044;48.298;10.008;2023-06-10T09:45:17;24.10;99.90
35962;DHT22;22044;48.298;10.008;2023-06-10T09:48:03;23.80;99.90
35962;DHT22;22044;48.298;10.008;2023-06-10T09:50:49;23.50;99.90
35962;DHT22;22044;48.298;10.008;2023-06-10T09:53:35;23.60;99.90
35962;DHT22;22044;48.298;10.008;2023-06-10T09:56:21;23.60;99.90
35962;DHT22;22044;48.298;10.008;2023-06-10T09:59:08;23.70;99.90
35962;DHT22;22044;48.298;10.008;2023-06-10T10:01:55;23.90;99.90
35962;DHT22;22044;48.298;10.008;2023-06-10T10:04:40;23.90;99.90
35962;DHT22;22044;48.298;10.008;2023-06-10T10:07:26;23.80;99.90
35962;DHT22;22044;48.298;10.008;2023-06-10T10:10:13;23.70;99.90
35962;DHT22;22044;48.298;10.008;2023-06-10T10:12:59;23.80;99.90
35962;DHT22;22044;48.298;10.008;2023-06-10T10:15:47;23.80;99.90
35962;DHT22;22044;48.298;10.008;2023-06-10T10:18:34;24.10;99.90
35962;DHT22;22044;48.298;10.008;2023-06-10T10:21:23;24.00;99.90
35962;DHT22;22044;48.298;10.008;2023-06-10T10:24:14;24.10;99.90
35962;DHT22;22044;48.298;10.008;2023-06-10T10:27:01;24.00;99.90
35962;DHT22;22044;48.298;10.008;2023-06-10T10:29:52;23.80;99.90
35962;DHT22;22044;48.298;10.008;2023-06-10T10:32:57;23.60;99.90
35962;DHT22;22044;48.298;10.008;2023-06-10T10:35:43;23.60;99.90
35962;DHT22;22044;48.298;10.008;2023-06-10T10:38:30;23.90;99.90
35962;DHT22;22044;48.298;10.008;2023-06-10T10:41:16;24.00;99.90
35962;DHT22;22044;48.298;10.008;2023-06-10T10:44:03;24.20;99.90
35962;DHT22;22044;48.298;10.008;2023-06-10T10:46:51;24.40;99.90
35962;DHT22;22044;48.298;10.008;2023-06-10T10:49:43;24.70;99.90
35962;DHT22;22044;48.298;10.008;2023-06-10T10:52:50;24.70;99.90
35962;DHT22;22044;48.298;10.008;2023-06-10T10:55:37;24.70;99.90
35962;DHT22;22044;48.298;10.008;2023-06-10T10:58:25;24.70;99.90
35962;DHT22;22044;48.298;10.008;2023-06-10T11:01:11;25.00;99.90
35962;DHT22;22044;48.298;10.008;2023-06-10T11:03:57;25.00;99.90
35962;DHT22;22044;48.298;10.008;2023-06-10T11:06:53;25.30;99.90
35962;DHT22;22044;48.298;10.008;2023-06-10T11:09:57;24.80;99.90
35962;DHT22;22044;48.298;10.008;2023-06-10T11:12:51;24.70;99.90
35962;DHT22;22044;48.298;10.008;2023-06-10T11:15:44;24.70;99.90
35962;DHT22;22044;48.298;10.008;2023-06-10T11:18:38;24.90;99.90
35962;DHT22;22044;48.298;10.008;2023-06-10T11:21:24;25.20;99.90
35962;DHT22;22044;48.298;10.008;2023-06-10T11:24:14;24.70;99.90
35962;DHT22;22044;48.298;10.008;2023-06-10T11:27:16;24.70;99.90
35962;DHT22;22044;48.298;10.008;2023-06-10T11:30:19;24.50;99.90
35962;DHT22;22044;48.298;10.008;2023-06-10T11:33:05;24.70;99.90
35962;DHT22;22044;48.298;10.008;2023-06-10T11:35:51;24.70;99.90
35962;DHT22;22044;48.298;10.008;2023-06-10T11:38:36;24.90;99.90
35962;DHT22;22044;48.298;10.008;2023-06-10T11:41:24;24.90;99.90
35962;DHT22;22044;48.298;10.008;2023-06-10T11:44:12;24.90;99.90
35962;DHT22;22044;48.298;10.008;2023-06-10T11:46:58;24.90;99.90
35962;DHT22;22044;48.298;10.008;2023-06-10T11:49:43;24.90;99.90
35962;DHT22;22044;48.298;10.008;2023-06-10T11:52:29;24.90;99.90
35962;DHT22;22044;48.298;10.008;2023-06-10T11:55:16;25.10;99.90
35962;DHT22;22044;48.298;10.008;2023-06-10T11:58:03;25.30;99.90
35962;DHT22;22044;48.298;10.008;2023-06-10T12:00:49;24.90;99.90
35962;DHT22;22044;48.298;10.008;2023-06-10T12:03:36;25.00;99.90
35962;DHT22;22044;48.298;10.008;2023-06-10T12:06:22;25.40;99.90
35962;DHT22;22044;48.298;10.008;2023-06-10T12:09:13;25.50;99.90
35962;DHT22;22044;48.298;10.008;2023-06-10T12:12:00;25.50;99.90
35962;DHT22;22044;48.298;10.008;2023-06-10T12:14:58;25.20;99.90
35962;DHT22;22044;48.298;10.008;2023-06-10T12:17:45;25.40;99.90
35962;DHT22;22044;48.298;10.008;2023-06-10T12:20:31;25.60;99.90
35962;DHT22;22044;48.298;10.008;2023-06-10T12:23:18;25.70;99.90
35962;DHT22;22044;48.298;10.008;2023-06-10T12:26:04;25.50;99.90
35962;DHT22;22044;48.298;10.008;2023-06-10T12:28:51;25.60;99.90
35962;DHT22;22044;48.298;10.008;2023-06-10T12:32:06;26.00;99.90
35962;DHT22;22044;48.298;10.008;2023-06-10T12:35:02;25.90;99.90
35962;DHT22;22044;48.298;10.008;2023-06-10T12:37:56;25.60;99.90
35962;DHT22;22044;48.298;10.008;2023-06-10T12:40:43;25.30;99.90
35962;DHT22;22044;48.298;10.008;2023-06-10T12:43:31;25.80;99.90
35962;DHT22;22044;48.298;10.008;2023-06-10T12:46:18;26.00;99.90
35962;DHT22;22044;48.298;10.008;2023-06-10T12:49:06;26.30;99.90
35962;DHT22;22044;48.298;10.008;2023-06-10T12:51:54;26.00;99.90
35962;DHT22;22044;48.298;10.008;2023-06-10T12:54:40;25.20;99.90
35962;DHT22;22044;48.298;10.008;2023-06-10T12:57:27;24.80;99.90
35962;DHT22;22044;48.298;10.008;2023-06-10T13:00:13;25.00;99.90
35962;DHT22;22044;48.298;10.008;2023-06-10T13:03:01;25.30;99.90
35962;DHT22;22044;48.298;10.008;2023-06-10T13:05:48;25.40;99.90
35962;DHT22;22044;48.298;10.008;2023-06-10T13:08:35;25.80;99.90
35962;DHT22;22044;48.298;10.008;2023-06-10T13:11:22;25.80;99.90
35962;DHT22;22044;48.298;10.008;2023-06-10T13:14:10;25.90;99.90
35962;DHT22;22044;48.298;10.008;2023-06-10T13:16:56;26.10;99.90
35962;DHT22;22044;48.298;10.008;2023-06-10T13:19:41;26.10;99.90
35962;DHT22;22044;48.298;10.008;2023-06-10T13:22:29;26.20;99.90
35962;DHT22;22044;48.298;10.008;2023-06-10T13:25:17;26.60;99.90
35962;DHT22;22044;48.298;10.008;2023-06-10T13:28:03;26.50;99.90
35962;DHT22;22044;48.298;10.008;2023-06-10T13:30:49;26.10;99.90
35962;DHT22;22044;48.298;10.008;2023-06-10T13:33:34;26.10;99.90
35962;DHT22;22044;48.298;10.008;2023-06-10T13:36:20;26.30;99.90
35962;DHT22;22044;48.298;10.008;2023-06-10T13:39:07;26.60;99.90
35962;DHT22;22044;48.298;10.008;2023-06-10T13:41:52;26.60;99.90
35962;DHT22;22044;48.298;10.008;2023-06-10T13:44:38;26.50;99.90
35962;DHT22;22044;48.298;10.008;2023-06-10T13:47:24;26.80;99.90
35962;DHT22;22044;48.298;10.008;2023-06-10T13:50:09;26.70;99.90
35962;DHT22;22044;48.298;10.008;2023-06-10T13:52:55;26.60;99.90
35962;DHT22;22044;48.298;10.008;2023-06-10T13:55:42;26.30;99.90
35962;DHT22;22044;48.298;10.008;2023-06-10T13:58:28;26.50;99.90
35962;DHT22;22044;48.298;10.008;2023-06-10T14:01:14;26.20;99.90
35962;DHT22;22044;48.298;10.008;2023-06-10T14:03:59;26.70;99.90
35962;DHT22;22044;48.298;10.008;2023-06-10T14:06:45;26.40;99.90
35962;DHT22;22044;48.298;10.008;2023-06-10T14:09:31;26.10;99.90
35962;DHT22;22044;48.298;10.008;2023-06-10T14:12:18;25.90;99.90
35962;DHT22;22044;48.298;10.008;2023-06-10T14:15:04;25.90;99.90
35962;DHT22;22044;48.298;10.008;2023-06-10T14:17:50;26.40;99.90
35962;DHT22;22044;48.298;10.008;2023-06-10T14:20:36;26.60;99.90
35962;DHT22;22044;48.298;10.008;2023-06-10T14:23:21;26.50;99.90
35962;DHT22;22044;48.298;10.008;2023-06-10T14:26:08;26.50;99.90
35962;DHT22;22044;48.298;10.008;2023-06-10T14:28:55;26.10;99.90
35962;DHT22;22044;48.298;10.008;2023-06-10T14:31:41;26.30;99.90
35962;DHT22;22044;48.298;10.008;2023-06-10T14:34:30;26.20;99.90
35962;DHT22;22044;48.298;10.008;2023-06-10T14:37:18;26.20;99.90
35962;DHT22;22044;48.298;10.008;2023-06-10T14:40:04;26.10;99.90
35962;DHT22;22044;48.298;10.008;2023-06-10T14:42:52;26.00;99.90
35962;DHT22;22044;48.298;10.008;2023-06-10T14:45:40;26.00;99.90
35962;DHT22;22044;48.298;10.008;2023-06-10T14:48:25;26.20;99.90
35962;DHT22;22044;48.298;10.008;2023-06-10T14:51:11;26.30;99.90
35962;DHT22;22044;48.298;10.008;2023-06-10T14:53:56;26.00;99.90
35962;DHT22;22044;48.298;10.008;2023-06-10T14:56:42;25.60;99.90
35962;DHT22;22044;48.298;10.008;2023-06-10T14:59:28;25.50;99.90
35962;DHT22;22044;48.298;10.008;2023-06-10T15:02:15;25.40;99.90
35962;DHT22;22044;48.298;10.008;2023-06-10T15:05:01;25.30;99.90
35962;DHT22;22044;48.298;10.008;2023-06-10T15:07:48;25.20;99.90
35962;DHT22;22044;48.298;10.008;2023-06-10T15:10:33;25.20;99.90
35962;DHT22;22044;48.298;10.008;2023-06-10T15:13:19;25.20;99.90
35962;DHT22;22044;48.298;10.008;2023-06-10T15:16:05;25.30;99.90
35962;DHT22;22044;48.298;10.008;2023-06-10T15:18:52;25.30;99.90
35962;DHT22;22044;48.298;10.008;2023-06-10T15:21:37;25.10;99.90
35962;DHT22;22044;48.298;10.008;2023-06-10T15:24:23;25.20;99.90
35962;DHT22;22044;48.298;10.008;2023-06-10T15:27:09;25.40;99.90
35962;DHT22;22044;48.298;10.008;2023-06-10T15:29:54;24.90;99.90
35962;DHT22;22044;48.298;10.008;2023-06-10T15:32:40;25.30;99.90
35962;DHT22;22044;48.298;10.008;2023-06-10T15:35:27;25.40;99.90
35962;DHT22;22044;48.298;10.008;2023-06-10T15:38:13;25.50;99.90
35962;DHT22;22044;48.298;10.008;2023-06-10T15:40:59;25.30;99.90
35962;DHT22;22044;48.298;10.008;2023-06-10T15:43:45;25.30;99.90
35962;DHT22;22044;48.298;10.008;2023-06-10T15:46:30;25.50;99.90
35962;DHT22;22044;48.298;10.008;2023-06-10T15:49:16;25.70;99.90
35962;DHT22;22044;48.298;10.008;2023-06-10T15:52:04;25.90;99.90
35962;DHT22;22044;48.298;10.008;2023-06-10T15:54:50;25.90;99.90
35962;DHT22;22044;48.298;10.008;2023-06-10T15:57:35;25.70;99.90
35962;DHT22;22044;48.298;10.008;2023-06-10T16:00:21;25.60;99.90
35962;DHT22;22044;48.298;10.008;2023-06-10T16:03:07;25.70;99.90
35962;DHT22;22044;48.298;10.008;2023-06-10T16:05:52;25.90;99.90
35962;DHT22;22044;48.298;10.008;2023-06-10T16:08:39;25.40;99.90
35962;DHT22;22044;48.298;10.008;2023-06-10T16:11:25;25.30;99.90
35962;DHT22;22044;48.298;10.008;2023-06-10T16:14:11;25.60;99.90
35962;DHT22;22044;48.298;10.008;2023-06-10T16:16:57;25.90;99.90
35962;DHT22;22044;48.298;10.008;2023-06-10T16:19:43;26.10;99.90
35962;DHT22;22044;48.298;10.008;2023-06-10T16:22:28;25.70;99.90
35962;DHT22;22044;48.298;10.008;2023-06-10T16:25:15;25.90;99.90
35962;DHT22;22044;48.298;10.008;2023-06-10T16:28:02;25.90;99.90
35962;DHT22;22044;48.298;10.008;2023-06-10T16:30:48;25.80;99.90
35962;DHT22;22044;48.298;10.008;2023-06-10T16:33:34;25.50;99.90
35962;DHT22;22044;48.298;10.008;2023-06-10T16:36:20;25.80;99.90
35962;DHT22;22044;48.298;10.008;2023-06-10T16:39:06;25.80;99.90
35962;DHT22;22044;48.298;10.008;2023-06-10T16:41:53;25.00;99.90
35962;DHT22;22044;48.298;10.008;2023-06-10T16:44:39;24.60;99.90
35962;DHT22;22044;48.298;10.008;2023-06-10T16:47:25;24.90;99.90
35962;DHT22;22044;48.298;10.008;2023-06-10T16:50:10;24.80;99.90
35962;DHT22;22044;48.298;10.008;2023-06-10T16:52:56;24.70;99.90
35962;DHT22;22044;48.298;10.008;2023-06-10T16:55:42;24.90;99.90
35962;DHT22;22044;48.298;10.008;2023-06-10T16:58:29;24.90;99.90
35962;DHT22;22044;48.298;10.008;2023-06-10T17:01:14;25.00;99.90
35962;DHT22;22044;48.298;10.008;2023-06-10T17:04:00;25.10;99.90
35962;DHT22;22044;48.298;10.008;2023-06-10T17:06:46;25.10;99.90
35962;DHT22;22044;48.298;10.008;2023-06-10T17:09:32;25.40;99.90
35962;DHT22;22044;48.298;10.008;2023-06-10T17:12:17;24.80;99.90
35962;DHT22;22044;48.298;10.008;2023-06-10T17:15:07;24.40;99.90
35962;DHT22;22044;48.298;10.008;2023-06-10T17:17:52;24.50;99.90